Time;durP1;ratioP1;P1;durP2;ratioP2;P2;SDS_P1;SDS_P2;PMS_P1;PMS_P2;Temp;Humidity;BMP_temperature;BMP_pressure;BME280_temperature;BME280_humidity;BME280_pressure;Samples;Min_cycle;Max_cycle;Signal;HPM_P1;HPM_P2
2021/01/15 00:00:05;;;;;;;16.60;8.30;;;-11.10;75.80;;;;;;5003115;28;20135;-78
2021/01/15 00:02:31;;;;;;;18.08;9.50;;;-11.10;76.60;;;;;;5003077;28;20046;-76
2021/01/15 00:04:57;;;;;;;15.73;8.30;;;-11.10;75.90;;;;;;5011469;28;20117;-80
2021/01/15 00:07:22;;;;;;;19.58;7.68;;;-11.10;76.00;;;;;;5013585;28;20174;-79
2021/01/15 00:09:48;;;;;;;19.00;10.73;;;-11.10;76.20;;;;;;4995736;28;20026;-79
2021/01/15 00:12:14;;;;;;;18.60;8.85;;;-11.00;76.20;;;;;;5014169;28;20018;-79
2021/01/15 00:14:40;;;;;;;14.98;9.07;;;-11.00;76.10;;;;;;5012480;28;20100;-78
2021/01/15 00:17:06;;;;;;;18.17;9.85;;;-11.00;75.80;;;;;;5013201;28;20060;-76
2021/01/15 00:19:32;;;;;;;14.27;8.77;;;-11.00;75.50;;;;;;5009278;28;20030;-77
2021/01/15 00:21:57;;;;;;;18.45;9.57;;;-11.00;75.40;;;;;;5003849;28;20026;-78
2021/01/15 00:24:23;;;;;;;22.27;9.90;;;-11.10;75.10;;;;;;5004162;28;20033;-78
2021/01/15 00:26:49;;;;;;;17.13;10.07;;;-11.10;74.90;;;;;;5008854;28;20099;-77
2021/01/15 00:29:16;;;;;;;28.65;9.52;;;-11.10;75.10;;;;;;5012871;28;20076;-79
2021/01/15 00:31:44;;;;;;;18.30;9.35;;;-11.10;75.60;;;;;;5013239;28;20391;-77
2021/01/15 00:34:14;;;;;;;24.13;11.57;;;-11.10;76.00;;;;;;5000027;28;20057;-77
2021/01/15 00:36:42;;;;;;;19.20;9.48;;;-11.00;76.20;;;;;;5008888;28;20105;-77
2021/01/15 00:39:09;;;;;;;22.75;10.15;;;-11.00;75.80;;;;;;5019215;28;20017;-78
2021/01/15 00:41:39;;;;;;;16.92;9.80;;;-11.00;75.50;;;;;;5013691;28;20018;-78
2021/01/15 00:44:07;;;;;;;19.40;9.40;;;-11.00;75.50;;;;;;5013141;28;20022;-78
2021/01/15 00:46:33;;;;;;;21.90;9.82;;;-11.00;75.70;;;;;;5013136;28;20022;-77
2021/01/15 00:49:01;;;;;;;17.65;11.20;;;-11.10;75.30;;;;;;5012899;28;20034;-78
2021/01/15 00:51:26;;;;;;;;;;;-11.10;75.40;;;;;;5013948;28;20026;-78
2021/01/15 00:53:52;;;;;;;19.63;10.07;;;-11.10;75.40;;;;;;5013106;28;19968;-78
2021/01/15 00:56:19;;;;;;;20.85;10.50;;;-11.10;75.00;;;;;;5013128;28;20018;-78
2021/01/15 00:58:49;;;;;;;27.33;10.48;;;-11.20;74.90;;;;;;5012983;28;20033;-77
2021/01/15 01:01:16;;;;;;;18.63;10.57;;;-11.20;75.40;;;;;;5012728;28;20045;-77
2021/01/15 01:03:45;;;;;;;16.73;9.23;;;-11.30;75.20;;;;;;5013710;28;20026;-78
2021/01/15 01:06:15;;;;;;;17.35;10.02;;;-11.30;75.40;;;;;;5012662;28;20486;-78
2021/01/15 01:08:41;;;;;;;16.75;9.90;;;-11.30;75.60;;;;;;5012749;28;20376;-78
2021/01/15 01:11:18;;;;;;;17.65;9.00;;;-11.30;75.60;;;;;;5012538;28;20044;-78
2021/01/15 01:13:48;;;;;;;21.73;10.73;;;-11.30;75.70;;;;;;5012464;28;20030;-77
2021/01/15 01:16:15;;;;;;;22.95;9.57;;;-11.30;76.20;;;;;;5014688;28;20105;-77
2021/01/15 01:18:42;;;;;;;18.42;9.98;;;-11.30;76.70;;;;;;5019846;28;20478;-78
2021/01/15 01:21:07;;;;;;;;;;;-11.30;76.10;;;;;;4999995;28;20153;-77
2021/01/15 01:23:33;;;;;;;18.47;8.07;;;-11.30;75.90;;;;;;5017331;28;19909;-78
2021/01/15 01:25:59;;;;;;;16.27;8.10;;;-11.30;75.70;;;;;;5002067;28;20018;-77
2021/01/15 01:28:25;;;;;;;14.13;9.15;;;-11.30;76.00;;;;;;5027354;28;20053;-77
2021/01/15 01:30:51;;;;;;;17.38;9.27;;;-11.30;76.00;;;;;;5020555;28;20077;-77
2021/01/15 01:33:17;;;;;;;22.48;10.43;;;-11.30;76.30;;;;;;4998571;28;20048;-77
2021/01/15 01:35:43;;;;;;;19.98;10.52;;;-11.30;76.00;;;;;;5017150;28;20065;-78
2021/01/15 01:38:08;;;;;;;18.00;10.23;;;-11.30;75.40;;;;;;5016139;28;20467;-76
2021/01/15 01:40:35;;;;;;;18.08;8.95;;;-11.30;75.20;;;;;;5015920;28;20108;-77
2021/01/15 01:43:01;;;;;;;17.17;10.20;;;-11.30;75.30;;;;;;5016364;28;20030;-77
2021/01/15 01:45:26;;;;;;;19.88;12.38;;;-11.30;75.30;;;;;;4998197;28;20026;-77
2021/01/15 01:47:54;;;;;;;17.83;8.90;;;-11.20;75.70;;;;;;4998499;28;20022;-78
2021/01/15 01:50:21;;;;;;;17.55;7.97;;;-11.20;75.50;;;;;;5018710;28;20071;-78
2021/01/15 01:52:47;;;;;;;19.98;11.68;;;-11.20;75.80;;;;;;5015937;28;20096;-78
2021/01/15 01:55:14;;;;;;;14.30;9.23;;;-11.20;76.60;;;;;;5014336;28;20089;-77
2021/01/15 01:57:41;;;;;;;12.65;7.07;;;-11.20;76.90;;;;;;5012083;28;20026;-77
2021/01/15 02:00:08;;;;;;;14.43;9.43;;;-11.20;77.10;;;;;;5007485;28;20037;-77
2021/01/15 02:02:34;;;;;;;14.65;8.18;;;-11.20;77.30;;;;;;5015431;28;20046;-78
2021/01/15 02:05:00;;;;;;;20.15;10.23;;;-11.20;77.50;;;;;;5015659;28;20032;-77
2021/01/15 02:07:26;;;;;;;15.18;7.22;;;-11.10;77.50;;;;;;5017758;28;20045;-76
2021/01/15 02:10:11;;;;;;;18.35;10.35;;;-11.10;77.50;;;;;;4998669;28;20026;-78
2021/01/15 02:12:54;;;;;;;17.02;7.90;;;-11.10;77.30;;;;;;5015290;28;20018;-78
2021/01/15 02:15:26;;;;;;;20.15;9.63;;;-11.10;76.90;;;;;;5015850;28;20033;-78
2021/01/15 02:18:09;;;;;;;14.07;8.38;;;-11.10;76.90;;;;;;5015244;28;20014;-77
2021/01/15 02:21:06;;;;;;;21.13;10.15;;;-11.20;77.80;;;;;;5015693;28;20490;-78
2021/01/15 02:23:38;;;;;;;18.88;7.85;;;-11.20;77.90;;;;;;5013686;28;20046;-77
2021/01/15 02:26:13;;;;;;;15.75;9.75;;;-11.20;77.70;;;;;;5001530;28;20101;-76
2021/01/15 02:29:03;;;;;;;18.00;8.98;;;-11.20;77.50;;;;;;5020822;28;20040;-78
2021/01/15 02:31:44;;;;;;;12.93;6.30;;;-11.20;77.50;;;;;;5015074;28;20029;-78
2021/01/15 02:34:31;;;;;;;19.42;10.32;;;-11.30;77.50;;;;;;5001676;28;20038;-76
2021/01/15 02:37:12;;;;;;;14.07;8.60;;;-11.30;77.40;;;;;;5014826;28;20491;-78
2021/01/15 02:39:46;;;;;;;18.73;8.80;;;-11.30;77.30;;;;;;5015016;28;20388;-77
2021/01/15 02:42:13;;;;;;;19.95;10.13;;;-11.30;77.50;;;;;;4997419;28;20018;-76
2021/01/15 02:44:41;;;;;;;17.60;9.70;;;-11.30;78.10;;;;;;5014941;28;20029;-77
2021/01/15 02:47:15;;;;;;;16.80;9.07;;;-11.40;77.10;;;;;;5000976;28;20379;-77
2021/01/15 02:49:45;;;;;;;20.65;10.02;;;-11.40;76.90;;;;;;5014655;28;20443;-78
2021/01/15 02:52:11;;;;;;;15.23;9.90;;;-11.40;76.90;;;;;;5014833;28;20021;-77
2021/01/15 02:54:37;;;;;;;16.70;11.00;;;-11.50;76.80;;;;;;5014491;28;20116;-77
2021/01/15 02:57:03;;;;;;;19.58;9.80;;;-11.50;76.90;;;;;;4996916;28;20456;-79
2021/01/15 02:59:29;;;;;;;14.00;8.52;;;-11.50;77.00;;;;;;5014686;28;20057;-79
2021/01/15 03:02:04;;;;;;;16.88;7.88;;;-11.60;77.10;;;;;;5014746;28;20073;-79
2021/01/15 03:04:50;;;;;;;20.30;9.52;;;-11.60;77.20;;;;;;5014501;28;20076;-79
2021/01/15 03:07:19;;;;;;;15.65;7.95;;;-11.60;76.90;;;;;;5014419;28;20442;-78
2021/01/15 03:09:47;;;;;;;18.35;6.15;;;-11.60;76.90;;;;;;5014424;28;20033;-77
2021/01/15 03:12:15;;;;;;;18.60;9.13;;;-11.60;77.00;;;;;;5015243;28;20040;-78
2021/01/15 03:14:43;;;;;;;16.77;10.45;;;-11.60;77.20;;;;;;5021846;28;20030;-78
2021/01/15 03:17:12;;;;;;;16.13;9.02;;;-11.60;77.10;;;;;;5015167;28;20101;-79
2021/01/15 03:19:39;;;;;;;16.95;9.55;;;-11.60;76.90;;;;;;5013785;28;20387;-78
2021/01/15 03:22:16;;;;;;;20.63;10.48;;;-11.60;76.70;;;;;;5014159;28;20010;-78
2021/01/15 03:24:56;;;;;;;12.32;7.78;;;-11.60;76.60;;;;;;5015004;28;20022;-78
2021/01/15 03:27:23;;;;;;;23.08;9.35;;;-11.60;76.40;;;;;;5005571;28;20034;-77
2021/01/15 03:29:49;;;;;;;16.13;9.82;;;-11.60;76.70;;;;;;4998814;28;20032;-78
2021/01/15 03:32:15;;;;;;;21.15;9.32;;;-11.60;77.00;;;;;;5019384;28;20104;-76
2021/01/15 03:34:42;;;;;;;;;;;-11.60;77.00;;;;;;5014928;28;20383;-78
2021/01/15 03:37:08;;;;;;;17.13;8.93;;;-11.50;77.10;;;;;;5013980;28;19972;-77
2021/01/15 03:39:34;;;;;;;18.30;8.27;;;-11.50;76.90;;;;;;5013160;28;20133;-78
2021/01/15 03:42:00;;;;;;;10.73;6.38;;;-11.50;77.00;;;;;;5013609;28;20022;-77
2021/01/15 03:44:26;;;;;;;24.58;9.85;;;-11.50;77.20;;;;;;4996236;28;20038;-78
2021/01/15 03:46:54;;;;;;;14.35;8.75;;;-11.40;76.60;;;;;;5013389;28;20014;-77
2021/01/15 03:49:19;;;;;;;;;;;-11.50;76.00;;;;;;4997549;28;20486;-78
2021/01/15 03:51:45;;;;;;;19.67;10.80;;;-11.50;76.10;;;;;;5013744;28;19906;-78
2021/01/15 03:54:11;;;;;;;17.90;8.65;;;-11.50;75.60;;;;;;5013800;28;20064;-77
2021/01/15 03:56:37;;;;;;;17.55;9.40;;;-11.50;75.70;;;;;;5013731;28;20022;-78
2021/01/15 03:59:03;;;;;;;20.10;10.88;;;-11.60;75.80;;;;;;5013161;28;20506;-78
2021/01/15 04:01:29;;;;;;;17.83;9.43;;;-11.60;75.90;;;;;;5013054;28;20071;-79
2021/01/15 04:03:55;;;;;;;25.47;9.27;;;-11.60;75.90;;;;;;4995993;28;20030;-78
2021/01/15 04:06:26;;;;;;;21.05;10.65;;;-11.60;76.00;;;;;;4995669;28;20018;-77
2021/01/15 04:08:52;;;;;;;21.15;8.40;;;-11.60;76.30;;;;;;5013862;28;20037;-78
2021/01/15 04:11:19;;;;;;;17.27;10.13;;;-11.60;76.40;;;;;;5013906;28;20018;-79
2021/01/15 04:13:46;;;;;;;18.85;9.10;;;-11.60;76.30;;;;;;5013886;28;20042;-79
2021/01/15 04:16:15;;;;;;;16.75;9.63;;;-11.60;75.90;;;;;;5022104;28;20018;-78
2021/01/15 04:18:41;;;;;;;18.70;11.27;;;-11.60;75.90;;;;;;5022644;28;20022;-78
2021/01/15 04:21:08;;;;;;;11.77;7.85;;;-11.70;75.70;;;;;;5015113;28;20018;-77
2021/01/15 04:23:35;;;;;;;14.65;9.23;;;-11.70;75.80;;;;;;5013778;28;20168;-79
2021/01/15 04:26:01;;;;;;;15.55;9.45;;;-11.70;75.90;;;;;;5013233;28;20026;-82
2021/01/15 04:28:28;;;;;;;15.25;8.30;;;-11.80;75.60;;;;;;5013637;28;20018;-79
2021/01/15 04:30:53;;;;;;;25.30;12.57;;;-11.80;75.90;;;;;;4995600;28;20032;-79
2021/01/15 04:33:19;;;;;;;21.15;9.85;;;-11.80;76.40;;;;;;5013106;28;20022;-79
2021/01/15 04:35:45;;;;;;;20.58;9.57;;;-11.80;76.10;;;;;;5013526;28;20030;-77
2021/01/15 04:38:11;;;;;;;15.32;9.35;;;-11.80;76.60;;;;;;5012834;28;20022;-78
2021/01/15 04:40:37;;;;;;;13.73;8.05;;;-11.80;77.00;;;;;;5012922;28;20032;-77
2021/01/15 04:43:05;;;;;;;18.93;9.50;;;-11.80;77.40;;;;;;5013201;28;20030;-78
2021/01/15 04:45:32;;;;;;;16.52;10.85;;;-11.70;77.30;;;;;;5011517;28;20277;-78
2021/01/15 04:47:58;;;;;;;18.52;10.60;;;-11.70;77.10;;;;;;5002517;28;20129;-78
2021/01/15 04:50:24;;;;;;;24.38;11.55;;;-11.70;77.10;;;;;;5015932;28;20026;-77
2021/01/15 04:52:51;;;;;;;28.65;10.43;;;-11.70;77.10;;;;;;5017155;28;20034;-78
2021/01/15 04:55:23;;;;;;;18.83;11.05;;;-11.70;77.00;;;;;;5016821;28;20391;-78
2021/01/15 04:57:51;;;;;;;20.75;10.70;;;-11.70;76.80;;;;;;5021194;28;20419;-78
2021/01/15 05:00:22;;;;;;;22.58;10.75;;;-11.70;76.50;;;;;;5024142;28;20029;-79
2021/01/15 05:02:49;;;;;;;12.57;8.15;;;-11.70;76.50;;;;;;5016927;28;20179;-80
2021/01/15 05:05:26;;;;;;;14.50;8.07;;;-11.70;76.20;;;;;;5017142;28;20018;-79
2021/01/15 05:08:15;;;;;;;17.30;10.27;;;-11.80;75.90;;;;;;5016562;28;20108;-79
2021/01/15 05:10:46;;;;;;;22.25;10.98;;;-11.80;76.40;;;;;;5016473;28;20014;-78
2021/01/15 05:13:13;;;;;;;27.35;11.15;;;-11.90;76.60;;;;;;5016567;28;20026;-78
2021/01/15 05:15:43;;;;;;;18.45;10.18;;;-11.90;76.50;;;;;;5018311;28;20057;-78
2021/01/15 05:18:10;;;;;;;26.85;11.95;;;-11.90;76.40;;;;;;5017530;28;20017;-77
2021/01/15 05:20:36;;;;;;;21.08;9.70;;;-11.90;76.60;;;;;;5017929;28;20022;-76
2021/01/15 05:23:04;;;;;;;21.92;11.20;;;-11.90;76.70;;;;;;5001212;28;20113;-79
2021/01/15 05:25:31;;;;;;;29.35;14.73;;;-11.90;76.10;;;;;;5019065;28;20025;-77
2021/01/15 05:27:57;;;;;;;16.35;8.57;;;-12.00;76.30;;;;;;5018602;28;20075;-78
2021/01/15 05:30:28;;;;;;;19.55;11.38;;;-12.10;76.60;;;;;;5015293;28;20034;-77
2021/01/15 05:32:57;;;;;;;16.98;9.45;;;-12.10;76.80;;;;;;5008359;28;20423;-78
2021/01/15 05:35:42;;;;;;;24.63;11.30;;;-12.20;77.00;;;;;;5016607;28;20090;-79
2021/01/15 05:38:10;;;;;;;14.93;9.80;;;-12.20;77.20;;;;;;5019773;28;20029;-79
2021/01/15 05:40:38;;;;;;;15.63;10.25;;;-12.10;77.30;;;;;;5015670;28;20018;-78
2021/01/15 05:43:05;;;;;;;18.67;9.85;;;-12.10;77.30;;;;;;5015888;28;20026;-79
2021/01/15 05:45:31;;;;;;;18.98;9.60;;;-12.10;77.20;;;;;;5012705;28;20105;-79
2021/01/15 05:47:57;;;;;;;18.83;9.07;;;-12.10;77.20;;;;;;5005821;28;20028;-77
2021/01/15 05:50:38;;;;;;;21.13;10.17;;;-12.10;77.10;;;;;;5015819;28;20026;-80
2021/01/15 05:53:04;;;;;;;22.30;10.27;;;-12.10;76.90;;;;;;5016371;28;20113;-80
2021/01/15 05:55:30;;;;;;;19.33;9.98;;;-12.00;76.90;;;;;;4999262;28;20124;-78
2021/01/15 05:57:56;;;;;;;18.50;10.77;;;-12.00;77.00;;;;;;5016344;28;20013;-80
2021/01/15 06:00:24;;;;;;;24.00;11.20;;;-12.00;77.00;;;;;;5016229;28;20022;-79
2021/01/15 06:02:52;;;;;;;24.67;11.32;;;-12.00;76.90;;;;;;5001146;28;20515;-79
2021/01/15 06:05:21;;;;;;;24.63;12.23;;;-12.00;76.80;;;;;;5016685;28;20026;-78
2021/01/15 06:07:56;;;;;;;14.88;8.38;;;-11.90;76.50;;;;;;5027871;28;20018;-78
2021/01/15 06:10:23;;;;;;;20.77;10.85;;;-11.90;76.40;;;;;;5001455;28;20381;-78
2021/01/15 06:12:50;;;;;;;24.02;13.05;;;-11.90;76.70;;;;;;5016291;28;20018;-80
2021/01/15 06:15:17;;;;;;;;;;;-11.80;77.00;;;;;;5016402;28;20064;-79
2021/01/15 06:17:49;;;;;;;22.13;13.05;;;-11.80;76.90;;;;;;5015494;28;19912;-78
2021/01/15 06:20:20;;;;;;;22.02;10.27;;;-11.80;76.80;;;;;;5015449;28;20041;-79
2021/01/15 06:22:54;;;;;;;20.50;9.43;;;-11.70;76.60;;;;;;5015417;28;20018;-76
2021/01/15 06:25:30;;;;;;;18.90;10.52;;;-11.70;76.60;;;;;;5014976;28;20026;-77
2021/01/15 06:27:58;;;;;;;17.20;10.80;;;-11.70;76.60;;;;;;5015328;28;20022;-78
2021/01/15 06:30:25;;;;;;;22.55;11.13;;;-11.70;76.60;;;;;;5014778;28;20208;-78
2021/01/15 06:32:53;;;;;;;20.58;10.82;;;-11.70;76.10;;;;;;4997289;28;20419;-80
2021/01/15 06:35:24;;;;;;;;;;;-11.60;76.00;;;;;;5005854;28;20033;-81
2021/01/15 06:38:04;;;;;;;26.40;11.52;;;-11.70;75.80;;;;;;5015305;28;19905;-78
2021/01/15 06:40:40;;;;;;;17.05;10.18;;;-11.70;75.50;;;;;;5014405;28;20026;-77
2021/01/15 06:43:24;;;;;;;19.53;11.77;;;-11.80;75.40;;;;;;5015036;28;20026;-78
2021/01/15 06:45:53;;;;;;;25.67;12.82;;;-11.80;75.60;;;;;;5001628;28;20251;-79
2021/01/15 06:48:27;;;;;;;24.95;13.02;;;-11.80;75.90;;;;;;5014702;28;20109;-78
2021/01/15 06:50:55;;;;;;;21.33;10.38;;;-11.80;76.30;;;;;;5014624;28;20018;-78
2021/01/15 06:53:32;;;;;;;22.10;11.20;;;-11.80;76.50;;;;;;4998038;28;20029;-77
2021/01/15 06:56:06;;;;;;;28.27;14.15;;;-11.70;76.60;;;;;;4996834;28;20022;-78
2021/01/15 06:58:40;;;;;;;26.15;12.70;;;-11.70;76.80;;;;;;5015339;28;20033;-77
2021/01/15 07:01:26;;;;;;;23.45;11.60;;;-11.60;76.90;;;;;;5014474;28;20030;-77
2021/01/15 07:04:24;;;;;;;21.10;12.35;;;-11.60;76.70;;;;;;5014656;28;20032;-77
2021/01/15 07:07:13;;;;;;;26.20;12.63;;;-11.50;76.50;;;;;;5014585;28;20539;-78
2021/01/15 07:09:43;;;;;;;22.65;13.23;;;-11.50;76.20;;;;;;5014308;28;20395;-77
2021/01/15 07:12:12;;;;;;;25.42;12.85;;;-11.50;76.10;;;;;;5014577;28;20022;-77
2021/01/15 07:14:49;;;;;;;26.13;13.52;;;-11.40;76.30;;;;;;5014066;28;20503;-77
2021/01/15 07:17:43;;;;;;;22.23;11.35;;;-11.40;75.90;;;;;;5014339;28;20022;-77
2021/01/15 07:20:14;;;;;;;18.52;7.78;;;-11.40;75.60;;;;;;5008414;28;20060;-77
2021/01/15 07:22:53;;;;;;;23.20;10.55;;;-11.40;76.10;;;;;;5014363;28;20541;-79
2021/01/15 07:25:22;;;;;;;21.13;11.07;;;-11.30;76.50;;;;;;5015110;28;20026;-77
2021/01/15 07:27:48;;;;;;;23.13;13.98;;;-11.30;75.80;;;;;;5014789;28;20069;-79
2021/01/15 07:30:23;;;;;;;19.80;12.88;;;-11.20;75.50;;;;;;4996197;28;20428;-79
2021/01/15 07:32:53;;;;;;;22.13;9.60;;;-11.20;75.00;;;;;;5014003;28;20038;-78
2021/01/15 07:35:22;;;;;;;31.13;11.70;;;-11.30;74.70;;;;;;4996172;28;20391;-78
2021/01/15 07:37:48;;;;;;;24.63;14.13;;;-11.20;75.00;;;;;;5014111;28;20014;-78
2021/01/15 07:40:16;;;;;;;31.60;14.27;;;-11.20;75.20;;;;;;5013619;28;20088;-78
2021/01/15 07:42:48;;;;;;;34.15;16.55;;;-11.20;75.40;;;;;;5014119;28;20383;-78
2021/01/15 07:45:23;;;;;;;20.90;12.48;;;-11.20;74.70;;;;;;5013693;28;20029;-77
2021/01/15 07:48:04;;;;;;;29.92;15.85;;;-11.20;74.60;;;;;;5014271;28;20022;-78
2021/01/15 07:50:44;;;;;;;26.52;14.05;;;-11.20;74.90;;;;;;5013970;28;20022;-78
2021/01/15 07:53:16;;;;;;;29.25;13.13;;;-11.20;74.50;;;;;;5013450;28;20029;-79
2021/01/15 07:55:56;;;;;;;27.60;14.73;;;-11.20;74.70;;;;;;4995400;28;20505;-78
2021/01/15 07:58:37;;;;;;;22.50;13.35;;;-11.10;75.10;;;;;;5013848;28;20383;-78
2021/01/15 08:01:12;;;;;;;25.02;12.48;;;-11.00;75.40;;;;;;5018065;28;20024;-78
2021/01/15 08:03:57;;;;;;;28.65;13.20;;;-10.80;75.70;;;;;;5003316;28;20112;-78
2021/01/15 08:06:24;;;;;;;29.05;11.95;;;-10.70;74.90;;;;;;4993770;28;20018;-78
2021/01/15 08:09:04;;;;;;;24.00;11.40;;;-10.60;74.40;;;;;;4994158;28;20026;-77
2021/01/15 08:11:36;;;;;;;20.63;12.63;;;-10.60;74.30;;;;;;4976240;28;20377;-79
2021/01/15 08:14:17;;;;;;;28.48;12.77;;;-10.50;73.70;;;;;;4993252;28;20400;-78
2021/01/15 08:16:44;;;;;;;18.95;10.15;;;-10.30;74.20;;;;;;4993429;28;20023;-77
2021/01/15 08:19:11;;;;;;;24.98;13.50;;;-10.20;73.30;;;;;;4993335;28;20018;-78
2021/01/15 08:21:40;;;;;;;23.00;12.10;;;-9.90;74.60;;;;;;4993691;28;20045;-77
2021/01/15 08:24:06;;;;;;;18.25;11.07;;;-9.60;72.90;;;;;;4993095;28;20097;-78
2021/01/15 08:26:50;;;;;;;25.17;13.98;;;-9.40;71.80;;;;;;4993545;28;20110;-78
2021/01/15 08:29:21;;;;;;;21.38;10.05;;;-9.30;71.90;;;;;;4975879;28;20014;-79
2021/01/15 08:31:49;;;;;;;23.48;12.98;;;-9.10;71.60;;;;;;4993376;28;20113;-79
2021/01/15 08:34:21;;;;;;;23.35;12.00;;;-8.90;71.10;;;;;;4994279;28;20030;-79
2021/01/15 08:36:56;;;;;;;25.38;14.35;;;-8.70;70.60;;;;;;4975685;28;20018;-79
2021/01/15 08:39:22;;;;;;;28.98;14.45;;;-8.60;69.10;;;;;;4993148;28;20018;-78
2021/01/15 08:41:59;;;;;;;28.20;15.40;;;-8.50;69.20;;;;;;4992937;28;20018;-78
2021/01/15 08:44:34;;;;;;;19.52;14.55;;;-8.40;69.40;;;;;;4993347;28;20383;-79
2021/01/15 08:47:03;;;;;;;31.02;15.63;;;-8.30;68.70;;;;;;4993494;28;20033;-78
2021/01/15 08:49:29;;;;;;;36.17;16.23;;;-8.20;67.30;;;;;;4993554;28;20035;-80
2021/01/15 08:51:58;;;;;;;33.42;15.18;;;-8.30;66.90;;;;;;4993666;28;20435;-79
2021/01/15 08:54:25;;;;;;;24.73;13.30;;;-8.30;65.80;;;;;;4975891;28;20057;-79
2021/01/15 08:56:52;;;;;;;40.38;17.30;;;-8.30;66.20;;;;;;4993090;28;20022;-78
2021/01/15 08:59:26;;;;;;;32.10;16.63;;;-8.40;66.10;;;;;;4992785;28;20030;-79
2021/01/15 09:02:00;;;;;;;33.60;15.02;;;-8.40;66.10;;;;;;5000587;28;20133;-77
2021/01/15 09:04:28;;;;;;;28.05;15.23;;;-8.50;65.80;;;;;;5012458;28;20360;-79
2021/01/15 09:06:57;;;;;;;32.60;16.27;;;-8.70;66.00;;;;;;4995002;28;20080;-78
2021/01/15 09:09:24;;;;;;;31.60;15.90;;;-8.80;66.60;;;;;;5012929;28;20045;-78
2021/01/15 09:11:52;;;;;;;31.48;15.60;;;-8.80;66.90;;;;;;5012869;28;20026;-78
2021/01/15 09:14:23;;;;;;;31.77;19.45;;;-8.90;66.60;;;;;;5012554;28;20041;-78
2021/01/15 09:16:52;;;;;;;33.58;17.67;;;-9.00;67.10;;;;;;5013256;28;20021;-77
2021/01/15 09:19:18;;;;;;;32.10;18.20;;;-9.20;67.00;;;;;;4995320;28;20026;-80
2021/01/15 09:21:59;;;;;;;35.17;15.18;;;-9.30;67.00;;;;;;5012990;28;20423;-77
2021/01/15 09:24:25;;;;;;;34.20;20.38;;;-9.50;67.60;;;;;;4996098;28;20116;-79
2021/01/15 09:27:02;;;;;;;30.88;17.35;;;-9.50;68.40;;;;;;4995583;28;20042;-77
2021/01/15 09:29:29;;;;;;;28.10;16.85;;;-9.60;68.60;;;;;;4995269;28;20064;-79
2021/01/15 09:31:55;;;;;;;28.42;13.80;;;-9.60;68.70;;;;;;5012936;28;20165;-79
2021/01/15 09:34:23;;;;;;;27.77;16.48;;;-9.60;69.30;;;;;;5013176;28;20034;-79
2021/01/15 09:36:50;;;;;;;29.52;15.07;;;-9.50;70.10;;;;;;5013981;28;20541;-79
2021/01/15 09:39:18;;;;;;;31.85;14.85;;;-9.50;70.80;;;;;;5015996;28;20456;-78
2021/01/15 09:41:52;;;;;;;38.42;16.42;;;-9.50;70.60;;;;;;5016049;28;20030;-79
2021/01/15 09:44:19;;;;;;;40.72;21.15;;;-9.50;70.30;;;;;;5016325;28;20120;-78
2021/01/15 09:46:45;;;;;;;;;;;-9.60;69.80;;;;;;5017135;28;20022;-79
2021/01/15 09:49:13;;;;;;;29.48;14.88;;;-9.60;69.40;;;;;;5016184;28;19945;-79
2021/01/15 09:51:39;;;;;;;33.65;18.90;;;-9.70;69.60;;;;;;5015689;28;20033;-80
2021/01/15 09:54:05;;;;;;;37.58;18.98;;;-9.80;70.20;;;;;;5015869;28;20029;-79
2021/01/15 09:56:34;;;;;;;33.70;17.42;;;-9.80;70.60;;;;;;5016587;28;20025;-78
2021/01/15 09:59:02;;;;;;;30.25;16.02;;;-9.90;70.30;;;;;;5026585;28;20026;-78
2021/01/15 10:01:30;;;;;;;30.10;17.42;;;-9.90;70.90;;;;;;5018483;28;20495;-78
2021/01/15 10:03:58;;;;;;;29.42;17.55;;;-9.90;71.00;;;;;;5015798;28;20475;-78
2021/01/15 10:06:27;;;;;;;38.17;17.45;;;-9.80;71.00;;;;;;5016144;28;20028;-79
2021/01/15 10:08:56;;;;;;;29.35;15.07;;;-9.80;71.50;;;;;;5016080;28;20045;-80
2021/01/15 10:11:27;;;;;;;30.27;16.20;;;-9.70;72.10;;;;;;5016275;28;20018;-80
2021/01/15 10:14:07;;;;;;;32.40;16.80;;;-9.50;72.60;;;;;;5019096;28;20038;-79
2021/01/15 10:16:37;;;;;;;31.17;16.40;;;-9.50;72.40;;;;;;5003594;28;20046;-79
2021/01/15 10:19:04;;;;;;;31.00;16.77;;;-9.30;73.00;;;;;;5015325;28;20029;-79
2021/01/15 10:21:32;;;;;;;40.78;19.15;;;-9.30;73.00;;;;;;5015178;28;20105;-79
2021/01/15 10:23:58;;;;;;;32.22;18.88;;;-9.20;72.90;;;;;;4998192;28;20462;-78
2021/01/15 10:26:32;;;;;;;29.38;17.23;;;-9.10;72.00;;;;;;5015409;28;20430;-78
2021/01/15 10:29:05;;;;;;;35.30;20.73;;;-9.10;71.30;;;;;;5002400;28;20026;-78
2021/01/15 10:31:41;;;;;;;34.65;18.13;;;-9.10;69.80;;;;;;5015235;28;20026;-78
2021/01/15 10:34:07;;;;;;;37.03;18.38;;;-9.30;70.00;;;;;;4990433;28;20522;-79
2021/01/15 10:36:33;;;;;;;29.38;18.05;;;-9.40;70.00;;;;;;5008958;28;20026;-77
2021/01/15 10:38:59;;;;;;;47.30;22.35;;;-9.50;70.70;;;;;;5014932;28;20522;-79
2021/01/15 10:41:32;;;;;;;42.63;21.33;;;-9.50;70.90;;;;;;5015305;28;20152;-79
2021/01/15 10:44:00;;;;;;;41.53;18.95;;;-9.40;71.10;;;;;;5014684;28;20029;-79
2021/01/15 10:46:33;;;;;;;55.03;23.95;;;-9.40;71.70;;;;;;5013447;28;20026;-78
2021/01/15 10:49:06;;;;;;;35.78;22.23;;;-9.30;72.10;;;;;;5014582;28;20033;-79
2021/01/15 10:51:32;;;;;;;41.83;19.88;;;-9.20;72.00;;;;;;5015092;28;20018;-77
2021/01/15 10:53:58;;;;;;;36.47;20.40;;;-9.10;71.50;;;;;;5016039;28;20052;-78
2021/01/15 10:56:24;;;;;;;34.60;21.63;;;-9.10;70.80;;;;;;5015568;28;20030;-80
2021/01/15 10:58:51;;;;;;;34.28;20.08;;;-9.00;71.30;;;;;;4997324;28;20026;-79
2021/01/15 11:01:17;;;;;;;45.00;23.40;;;-8.90;71.80;;;;;;5014837;28;20045;-80
2021/01/15 11:03:45;;;;;;;30.75;19.88;;;-8.90;70.70;;;;;;5002270;28;20310;-79
2021/01/15 11:06:21;;;;;;;34.17;18.20;;;-8.90;70.30;;;;;;5014725;28;20022;-79
2021/01/15 11:08:47;;;;;;;39.38;20.25;;;-9.00;70.30;;;;;;5015069;28;20036;-80
2021/01/15 11:11:12;;;;;;;44.00;22.50;;;-9.10;70.10;;;;;;4997041;28;20021;-77
2021/01/15 11:13:38;;;;;;;42.90;22.50;;;-9.10;71.00;;;;;;5015083;28;20076;-78
2021/01/15 11:16:14;;;;;;;49.40;25.42;;;-9.10;70.60;;;;;;5014705;28;20022;-78
2021/01/15 11:18:41;;;;;;;45.38;23.33;;;-9.10;70.00;;;;;;5014421;28;20022;-82
2021/01/15 11:21:08;;;;;;;43.10;23.13;;;-9.10;71.30;;;;;;5014172;28;20109;-79
2021/01/15 11:23:34;;;;;;;47.83;25.42;;;-9.10;71.80;;;;;;5014975;28;20026;-79
2021/01/15 11:26:01;;;;;;;50.05;22.88;;;-9.00;72.30;;;;;;5014592;28;20352;-79
2021/01/15 11:28:27;;;;;;;42.78;21.90;;;-9.00;71.70;;;;;;5014199;28;20036;-78
2021/01/15 11:30:53;;;;;;;39.90;22.48;;;-9.00;71.90;;;;;;5013802;28;20410;-79
2021/01/15 11:33:19;;;;;;;42.22;21.63;;;-9.00;71.30;;;;;;5014029;28;20045;-79
2021/01/15 11:35:45;;;;;;;41.88;21.65;;;-9.00;71.40;;;;;;5013780;28;20096;-79
2021/01/15 11:38:11;;;;;;;35.53;20.77;;;-8.90;71.40;;;;;;5014247;28;20080;-79
2021/01/15 11:40:37;;;;;;;34.53;20.33;;;-8.90;72.10;;;;;;4995920;28;20375;-78
2021/01/15 11:43:05;;;;;;;34.65;16.65;;;-8.80;71.80;;;;;;5013561;28;20026;-78
2021/01/15 11:45:31;;;;;;;40.72;19.33;;;-8.80;72.60;;;;;;5013610;28;20040;-78
2021/01/15 11:47:57;;;;;;;41.17;21.45;;;-8.80;72.00;;;;;;5013927;28;20018;-79
2021/01/15 11:50:28;;;;;;;43.15;19.55;;;-8.80;71.00;;;;;;4996110;28;20127;-78
2021/01/15 11:52:55;;;;;;;40.78;21.90;;;-8.90;70.70;;;;;;5015436;28;20029;-79
2021/01/15 11:55:22;;;;;;;38.17;22.50;;;-9.00;70.90;;;;;;5020742;28;20034;-77
2021/01/15 11:57:52;;;;;;;46.58;23.75;;;-9.10;71.00;;;;;;5023012;28;20022;-79
2021/01/15 12:00:21;;;;;;;41.65;20.50;;;-9.20;70.10;;;;;;5012977;28;20026;-79
2021/01/15 12:02:48;;;;;;;31.98;18.42;;;-9.30;70.50;;;;;;5013212;28;20045;-78
2021/01/15 12:05:14;;;;;;;40.95;20.38;;;-9.40;70.80;;;;;;5013459;28;20158;-78
2021/01/15 12:07:41;;;;;;;42.38;19.90;;;-9.50;71.20;;;;;;5013665;28;20037;-79
2021/01/15 12:10:08;;;;;;;34.70;19.27;;;-9.50;71.70;;;;;;4996938;28;20462;-80
2021/01/15 12:12:38;;;;;;;44.13;22.35;;;-9.50;72.30;;;;;;4996062;28;20533;-78
2021/01/15 12:15:06;;;;;;;31.70;18.23;;;-9.40;72.30;;;;;;5011684;28;20085;-77
2021/01/15 12:17:32;;;;;;;49.05;26.98;;;-9.40;72.20;;;;;;5013213;28;20383;-78
2021/01/15 12:19:58;;;;;;;47.50;20.17;;;-9.40;72.50;;;;;;5013077;28;20025;-78
2021/01/15 12:22:24;;;;;;;42.08;23.98;;;-9.40;71.70;;;;;;5011665;28;20030;-81
2021/01/15 12:24:50;;;;;;;42.55;21.13;;;-9.50;71.70;;;;;;5012960;28;20048;-79
2021/01/15 12:27:16;;;;;;;48.92;24.83;;;-9.50;72.50;;;;;;5013560;28;20018;-81
2021/01/15 12:29:42;;;;;;;40.85;25.38;;;-9.50;73.30;;;;;;5013349;28;20057;-80
2021/01/15 12:32:08;;;;;;;39.70;21.60;;;-9.50;73.00;;;;;;4993241;28;20085;-78
2021/01/15 12:34:34;;;;;;;37.92;22.15;;;-9.40;73.00;;;;;;4995073;28;20041;-80
2021/01/15 12:37:00;;;;;;;47.72;24.60;;;-9.40;74.40;;;;;;5012445;28;20029;-79